Time;durP1;ratioP1;P1;durP2;ratioP2;P2;SDS_P1;SDS_P2;PMS_P1;PMS_P2;Temp;Humidity;BMP_temperature;BMP_pressure;BME280_temperature;BME280_humidity;BME280_pressure;Samples;Min_cycle;Max_cycle;Signal;HPM_P1;HPM_P2
2022/11/28 00:01:49;;;;;;;5.97;4.57;;;4.50;99.90;;;;;;5096898;28;20164;-79
2022/11/28 00:04:15;;;;;;;6.80;5.07;;;4.50;99.90;;;;;;5096803;28;20176;-78
2022/11/28 00:06:44;;;;;;;8.40;5.87;;;4.50;99.90;;;;;;5096809;28;20224;-79
2022/11/28 00:09:12;;;;;;;7.87;4.90;;;4.50;99.90;;;;;;5096920;28;20182;-79
2022/11/28 00:11:42;;;;;;;7.43;5.37;;;4.50;99.90;;;;;;5114958;28;20189;-79
2022/11/28 00:14:08;;;;;;;8.70;5.57;;;4.50;99.90;;;;;;5096660;28;20227;-79
2022/11/28 00:16:34;;;;;;;6.83;5.27;;;4.50;99.90;;;;;;5114930;28;20198;-79
2022/11/28 00:19:01;;;;;;;7.23;5.20;;;4.50;99.90;;;;;;5096287;28;20257;-79
2022/11/28 00:21:27;;;;;;;8.57;5.33;;;4.50;99.90;;;;;;5096305;28;20199;-79
2022/11/28 00:23:53;;;;;;;7.77;5.30;;;4.50;99.90;;;;;;5096476;28;20201;-79
2022/11/28 00:26:22;;;;;;;6.57;4.70;;;4.50;99.90;;;;;;5096304;28;20202;-79
2022/11/28 00:28:47;;;;;;;7.53;5.00;;;4.50;99.90;;;;;;5114626;28;20167;-79
2022/11/28 00:31:14;;;;;;;9.53;6.07;;;4.60;99.90;;;;;;5114736;28;20179;-79
2022/11/28 00:33:40;;;;;;;8.50;5.70;;;4.50;99.90;;;;;;5114034;28;20205;-79
2022/11/28 00:38:36;;;;;;;8.10;5.77;;;4.30;99.90;;;;;;5095092;22;20235;-79
2022/11/28 00:41:04;;;;;;;7.60;5.17;;;4.30;99.90;;;;;;5055120;28;20230;-78
2022/11/28 00:43:30;;;;;;;8.77;5.80;;;4.30;99.90;;;;;;5072769;28;20176;-79
2022/11/28 00:45:56;;;;;;;8.13;5.73;;;4.30;99.90;;;;;;5055444;28;20173;-79
2022/11/28 00:48:22;;;;;;;7.57;5.70;;;4.30;99.90;;;;;;5072696;28;20704;-79
2022/11/28 00:50:48;;;;;;;8.30;5.50;;;4.30;99.90;;;;;;5054797;28;20264;-79
2022/11/28 00:53:14;;;;;;;8.03;5.57;;;4.30;99.90;;;;;;5072785;28;20236;-79
2022/11/28 00:55:40;;;;;;;8.33;5.67;;;4.30;99.90;;;;;;5055080;28;20169;-79
2022/11/28 00:58:06;;;;;;;8.30;5.53;;;4.30;99.90;;;;;;5055285;28;20218;-79
2022/11/28 01:00:32;;;;;;;7.43;5.40;;;4.30;99.90;;;;;;5073176;28;20172;-79
2022/11/28 01:02:58;;;;;;;8.77;5.20;;;4.30;99.90;;;;;;5055256;28;20177;-79
2022/11/28 01:05:24;;;;;;;8.07;5.50;;;4.30;99.90;;;;;;5054918;28;20199;-79
2022/11/28 01:07:50;;;;;;;7.23;4.90;;;4.30;99.90;;;;;;5055084;28;20228;-79
2022/11/28 01:10:16;;;;;;;8.53;4.80;;;4.30;99.90;;;;;;5077083;28;20206;-79
2022/11/28 01:12:42;;;;;;;7.03;4.77;;;4.40;99.90;;;;;;5084436;28;20202;-79
2022/11/28 01:15:09;;;;;;;8.03;5.10;;;4.30;99.90;;;;;;5074931;28;20177;-78
2022/11/28 01:17:35;;;;;;;7.07;4.80;;;4.30;99.90;;;;;;5092905;28;20192;-79
2022/11/28 01:20:04;;;;;;;7.73;5.00;;;4.30;99.90;;;;;;5074786;28;20172;-79
2022/11/28 01:22:30;;;;;;;6.50;5.13;;;4.20;99.90;;;;;;5092662;28;20180;-79
2022/11/28 01:24:56;;;;;;;7.93;5.07;;;4.20;99.90;;;;;;5075097;28;20172;-79
2022/11/28 01:27:21;;;;;;;7.93;5.17;;;4.30;99.90;;;;;;5074665;28;20192;-79
2022/11/28 01:29:47;;;;;;;8.27;5.37;;;4.30;99.90;;;;;;5092621;28;20186;-79
2022/11/28 01:32:13;;;;;;;6.93;5.10;;;4.30;99.90;;;;;;5074248;28;20212;-76
2022/11/28 01:34:38;;;;;;;7.20;5.20;;;4.40;99.90;;;;;;5074539;28;20226;-79
2022/11/28 01:37:04;;;;;;;7.83;5.20;;;4.40;99.90;;;;;;5074375;28;20216;-79
2022/11/28 01:39:30;;;;;;;8.23;5.37;;;4.40;99.90;;;;;;5074698;28;20180;-79
2022/11/28 01:41:55;;;;;;;8.23;5.73;;;4.40;99.90;;;;;;5092295;28;20210;-79
2022/11/28 01:44:21;;;;;;;7.37;5.33;;;4.40;99.90;;;;;;5074442;28;20220;-79
2022/11/28 01:46:46;;;;;;;9.97;5.50;;;4.40;99.90;;;;;;5074446;28;20192;-79
2022/11/28 01:49:18;;;;;;;8.87;5.93;;;4.40;99.90;;;;;;5092273;28;20217;-79
2022/11/28 01:51:47;;;;;;;7.83;5.90;;;4.30;99.90;;;;;;5074624;28;20238;-78
2022/11/28 01:54:17;;;;;;;8.93;6.10;;;4.20;99.90;;;;;;5092497;28;20207;-79
2022/11/28 01:57:07;;;;;;;8.90;5.60;;;4.30;99.90;;;;;;5074568;28;20196;-79
2022/11/28 01:59:38;;;;;;;7.50;5.07;;;4.30;99.90;;;;;;5074379;28;20198;-79
2022/11/28 02:02:07;;;;;;;8.60;5.67;;;4.30;99.90;;;;;;5078371;28;20160;-79
2022/11/28 02:04:33;;;;;;;8.77;5.90;;;4.30;99.90;;;;;;5096701;28;20242;-79
2022/11/28 02:06:59;;;;;;;6.90;4.63;;;4.30;99.90;;;;;;5078646;28;20226;-79
2022/11/28 02:09:25;;;;;;;6.50;4.57;;;4.30;99.90;;;;;;5078210;28;20638;-79
2022/11/28 02:12:08;;;;;;;6.47;4.90;;;4.30;99.90;;;;;;5096197;28;20176;-79
2022/11/28 02:15:02;;;;;;;6.53;4.70;;;4.30;99.90;;;;;;5078557;28;20200;-79
2022/11/28 02:18:02;;;;;;;6.47;4.60;;;4.20;99.90;;;;;;5078265;28;20279;-79
2022/11/28 02:20:33;;;;;;;5.87;3.97;;;4.20;99.90;;;;;;5096266;28;20571;-79
2022/11/28 02:23:13;;;;;;;5.50;4.17;;;4.20;99.90;;;;;;5078158;28;20177;-79
2022/11/28 02:26:06;;;;;;;6.03;4.37;;;4.20;99.90;;;;;;5096458;28;20197;-79
2022/11/28 02:28:50;;;;;;;6.13;4.17;;;4.10;99.90;;;;;;5077866;28;20279;-79
2022/11/28 02:31:53;;;;;;;6.77;4.80;;;4.10;99.90;;;;;;5077936;28;20170;-79
2022/11/28 02:34:38;;;;;;;7.63;4.73;;;4.10;99.90;;;;;;5077691;28;20204;-79
2022/11/28 02:37:10;;;;;;;5.43;4.60;;;4.10;99.90;;;;;;5095871;28;20211;-79
2022/11/28 02:39:55;;;;;;;6.07;3.83;;;4.10;99.90;;;;;;5077581;28;20172;-79
2022/11/28 02:42:23;;;;;;;6.60;4.20;;;4.10;99.90;;;;;;5077755;28;20226;-79
2022/11/28 02:45:10;;;;;;;6.30;4.43;;;4.10;99.90;;;;;;5095883;28;20259;-79
2022/11/28 02:47:42;;;;;;;6.43;3.83;;;4.00;99.90;;;;;;5061075;28;20197;-79
2022/11/28 02:50:29;;;;;;;5.53;4.50;;;3.90;99.90;;;;;;5090296;28;20269;-79
2022/11/28 02:53:08;;;;;;;6.80;4.47;;;3.90;99.90;;;;;;5087206;28;20283;-79
2022/11/28 02:55:38;;;;;;;5.93;4.10;;;3.90;99.90;;;;;;5095730;28;20176;-79
2022/11/28 02:58:03;;;;;;;5.13;4.10;;;3.90;99.90;;;;;;5090139;28;20219;-79
2022/11/28 03:00:33;;;;;;;5.07;3.63;;;3.90;99.90;;;;;;5071763;28;20669;-79
2022/11/28 03:03:17;;;;;;;4.20;3.63;;;3.90;99.90;;;;;;5077356;28;20706;-79
2022/11/28 03:06:09;;;;;;;3.73;3.10;;;3.90;99.90;;;;;;5077268;28;20769;-79
2022/11/28 03:08:50;;;;;;;4.83;3.20;;;3.80;99.90;;;;;;5066547;28;20214;-79
2022/11/28 03:11:22;;;;;;;5.03;3.40;;;3.80;99.90;;;;;;5077283;28;20211;-79
2022/11/28 03:13:57;;;;;;;4.10;3.50;;;3.70;99.90;;;;;;5076506;28;20207;-79
2022/11/28 03:16:30;;;;;;;4.40;3.50;;;3.70;99.90;;;;;;5077336;28;20203;-79
2022/11/28 03:19:34;;;;;;;3.97;3.27;;;3.70;99.90;;;;;;5095587;28;20173;-79
2022/11/28 03:21:59;;;;;;;3.57;2.80;;;3.70;99.90;;;;;;5053455;28;20205;-79
2022/11/28 03:24:41;;;;;;;3.70;2.80;;;3.70;99.90;;;;;;5095049;28;20164;-79
2022/11/28 03:27:16;;;;;;;4.40;2.97;;;3.70;99.90;;;;;;5095077;28;20194;-79
2022/11/28 03:29:51;;;;;;;4.40;3.17;;;3.60;99.90;;;;;;5095030;28;20183;-79
2022/11/28 03:32:23;;;;;;;4.10;3.10;;;3.60;99.90;;;;;;5076682;28;20633;-79
2022/11/28 03:34:55;;;;;;;5.80;3.47;;;3.60;99.90;;;;;;5076719;28;20168;-79
2022/11/28 03:37:24;;;;;;;4.33;3.40;;;3.60;99.90;;;;;;5076908;28;20200;-79
2022/11/28 03:39:56;;;;;;;4.33;3.17;;;3.60;99.90;;;;;;5095028;28;20220;-79
2022/11/28 03:42:25;;;;;;;4.20;3.10;;;3.50;99.90;;;;;;5094734;28;20264;-79
2022/11/28 03:45:05;;;;;;;3.87;3.10;;;3.60;99.90;;;;;;5076909;28;20646;-79
2022/11/28 03:47:35;;;;;;;4.77;3.17;;;3.50;99.90;;;;;;5076412;28;20188;-79
2022/11/28 03:50:12;;;;;;;4.40;3.20;;;3.50;99.90;;;;;;5094811;28;20186;-79
2022/11/28 03:52:43;;;;;;;5.07;3.33;;;3.50;99.90;;;;;;5076619;28;20226;-79
2022/11/28 03:55:26;;;;;;;5.27;3.50;;;3.50;99.90;;;;;;5086155;28;20175;-79
2022/11/28 03:58:17;;;;;;;5.87;3.53;;;3.50;99.90;;;;;;5076448;28;20184;-79
2022/11/28 04:00:57;;;;;;;4.50;3.77;;;3.50;99.90;;;;;;5064994;28;20617;-79
2022/11/28 04:04:04;;;;;;;4.93;3.77;;;3.60;99.90;;;;;;5094353;28;20711;-79
2022/11/28 04:06:45;;;;;;;5.83;4.20;;;3.70;99.90;;;;;;5021526;28;20187;-79
2022/11/28 04:09:17;;;;;;;6.20;4.10;;;3.70;99.90;;;;;;5076022;28;20541;-79
2022/11/28 04:11:57;;;;;;;5.97;4.33;;;3.70;99.90;;;;;;5094788;28;20176;-79
2022/11/28 04:14:33;;;;;;;4.70;3.90;;;3.60;99.90;;;;;;5075986;28;20203;-79
2022/11/28 04:17:20;;;;;;;5.90;4.27;;;3.70;99.90;;;;;;5093934;28;20599;-79
2022/11/28 04:19:51;;;;;;;5.23;4.10;;;3.70;99.90;;;;;;5094175;28;20246;-80
2022/11/28 04:22:34;;;;;;;6.53;4.13;;;3.70;99.90;;;;;;5093716;28;20192;-79
2022/11/28 04:25:04;;;;;;;6.63;4.13;;;3.70;99.90;;;;;;5093775;28;20168;-79
2022/11/28 04:27:35;;;;;;;6.00;4.47;;;3.70;99.90;;;;;;5074622;28;20280;-79
2022/11/28 04:30:03;;;;;;;4.37;3.37;;;3.80;99.90;;;;;;5076016;28;20168;-79
2022/11/28 04:32:30;;;;;;;6.53;3.93;;;3.70;99.90;;;;;;5075150;28;20200;-79
2022/11/28 04:35:08;;;;;;;9.33;4.87;;;3.70;99.90;;;;;;5075572;28;20520;-80
2022/11/28 04:37:36;;;;;;;9.67;5.40;;;3.80;99.90;;;;;;5075218;28;20212;-79
2022/11/28 04:40:04;;;;;;;7.20;4.40;;;3.80;99.90;;;;;;5093735;28;20698;-79
2022/11/28 04:42:35;;;;;;;6.77;4.30;;;3.80;99.90;;;;;;5093610;28;20172;-79
2022/11/28 04:45:43;;;;;;;5.70;4.23;;;3.60;99.90;;;;;;5094005;28;20175;-79
2022/11/28 04:48:08;;;;;;;5.63;4.00;;;3.60;99.90;;;;;;5093305;28;20188;-78
2022/11/28 04:50:47;;;;;;;6.73;4.17;;;3.60;99.90;;;;;;5075412;28;20237;-79
2022/11/28 04:53:40;;;;;;;7.00;4.40;;;3.60;99.90;;;;;;5075066;28;20264;-79
2022/11/28 04:56:14;;;;;;;6.10;4.07;;;3.60;99.90;;;;;;5093522;28;20183;-79
2022/11/28 04:58:43;;;;;;;8.30;4.73;;;3.60;99.90;;;;;;5092981;28;20651;-79
2022/11/28 05:01:15;;;;;;;7.57;4.90;;;3.60;99.90;;;;;;5093239;28;20229;-79
2022/11/28 05:03:41;;;;;;;7.00;5.00;;;3.50;99.90;;;;;;5093021;28;20183;-79
2022/11/28 05:06:07;;;;;;;6.30;4.57;;;3.60;99.90;;;;;;5074861;28;20267;-79
2022/11/28 05:08:33;;;;;;;7.43;4.57;;;3.60;99.90;;;;;;5074946;28;20203;-79
2022/11/28 05:10:59;;;;;;;7.23;5.07;;;3.60;99.90;;;;;;5092933;28;20184;-79
2022/11/28 05:13:24;;;;;;;5.63;4.30;;;3.60;99.90;;;;;;5074743;28;20211;-79
2022/11/28 05:15:50;;;;;;;7.63;4.90;;;3.50;99.90;;;;;;5075091;28;20168;-79
2022/11/28 05:18:15;;;;;;;6.97;4.33;;;3.50;99.90;;;;;;5074751;28;20192;-79
2022/11/28 05:20:42;;;;;;;6.37;4.40;;;3.50;99.90;;;;;;5070207;28;20263;-79
2022/11/28 05:23:07;;;;;;;7.00;4.80;;;3.50;99.90;;;;;;5073530;28;20266;-79
2022/11/28 05:25:33;;;;;;;6.23;4.40;;;3.50;99.90;;;;;;5059790;28;20185;-79
2022/11/28 05:27:58;;;;;;;6.23;4.20;;;3.50;99.90;;;;;;5072538;28;20201;-80
2022/11/28 05:30:24;;;;;;;7.03;4.57;;;3.50;99.90;;;;;;5054589;28;20187;-79
2022/11/28 05:32:49;;;;;;;5.53;4.43;;;3.50;99.90;;;;;;5054424;28;20274;-79
2022/11/28 05:35:15;;;;;;;6.03;4.73;;;3.50;99.90;;;;;;5071833;28;20173;-79
2022/11/28 05:37:41;;;;;;;7.97;4.70;;;3.50;99.90;;;;;;5054335;28;20205;-80
2022/11/28 05:40:07;;;;;;;7.40;4.90;;;3.50;99.90;;;;;;5054351;28;20196;-79
2022/11/28 05:42:34;;;;;;;6.37;4.37;;;3.50;99.90;;;;;;5054177;28;20181;-79
2022/11/28 05:45:00;;;;;;;7.80;4.53;;;3.50;99.90;;;;;;5064684;28;20176;-79
2022/11/28 05:47:29;;;;;;;7.57;4.60;;;3.50;99.90;;;;;;5060242;28;20667;-80
2022/11/28 05:49:55;;;;;;;6.23;4.67;;;3.60;99.90;;;;;;5073350;28;20189;-79
2022/11/28 05:52:20;;;;;;;6.53;4.47;;;3.60;99.90;;;;;;5065587;28;20624;-79
2022/11/28 05:54:46;;;;;;;6.23;4.60;;;3.50;99.90;;;;;;5092282;28;20615;-79
2022/11/28 05:57:11;;;;;;;6.40;4.40;;;3.50;99.90;;;;;;5092267;28;20598;-79
2022/11/28 05:59:37;;;;;;;6.67;4.40;;;3.50;99.90;;;;;;5092541;28;20169;-79
2022/11/28 06:02:02;;;;;;;6.33;4.10;;;3.50;99.90;;;;;;5074590;28;20168;-79
2022/11/28 06:04:28;;;;;;;5.63;4.17;;;3.50;99.90;;;;;;5091990;28;20184;-79
2022/11/28 06:06:53;;;;;;;7.03;4.30;;;3.50;99.90;;;;;;5074053;28;20558;-79
2022/11/28 06:09:19;;;;;;;7.20;4.30;;;3.50;99.90;;;;;;5074174;28;20223;-80
2022/11/28 06:11:45;;;;;;;6.37;3.97;;;3.40;99.90;;;;;;5092667;28;20634;-80
2022/11/28 06:14:10;;;;;;;5.97;4.30;;;3.40;99.90;;;;;;5074677;28;20727;-80
2022/11/28 06:16:36;;;;;;;7.57;4.27;;;3.40;99.90;;;;;;5093003;28;20287;-80
2022/11/28 06:19:04;;;;;;;7.50;4.30;;;3.50;99.90;;;;;;5075056;28;20177;-80
2022/11/28 06:21:30;;;;;;;12.83;8.67;;;3.40;99.90;;;;;;5074461;28;20676;-80
2022/11/28 06:23:59;;;;;;;102.77;42.40;;;3.50;99.90;;;;;;5074575;28;20181;-79
2022/11/28 06:26:26;;;;;;;15.00;8.60;;;3.50;99.90;;;;;;5092531;28;20202;-79
2022/11/28 06:28:54;;;;;;;8.40;4.33;;;3.50;99.90;;;;;;5092667;28;20165;-80
2022/11/28 06:31:22;;;;;;;5.03;4.00;;;3.60;99.90;;;;;;5092805;28;20176;-80
2022/11/28 06:33:48;;;;;;;5.97;4.10;;;3.60;99.90;;;;;;5074007;28;20202;-81
2022/11/28 06:36:16;;;;;;;6.23;4.63;;;3.60;99.90;;;;;;5092093;28;20561;-80
2022/11/28 06:38:42;;;;;;;5.40;3.97;;;3.50;99.90;;;;;;5117129;22;20220;-82
2022/11/28 06:41:11;;;;;;;6.43;4.67;;;3.50;99.90;;;;;;5092287;28;20160;-81
2022/11/28 06:43:36;;;;;;;6.43;4.17;;;3.50;99.90;;;;;;5092367;28;20225;-82
2022/11/28 06:46:02;;;;;;;7.40;4.40;;;3.50;99.90;;;;;;5074791;28;20176;-82
2022/11/28 06:48:28;;;;;;;6.20;4.20;;;3.40;99.90;;;;;;5078035;28;20199;-82
2022/11/28 06:51:01;;;;;;;6.13;3.87;;;3.40;99.90;;;;;;5078005;28;20172;-82
2022/11/28 06:53:27;;;;;;;5.77;3.93;;;3.40;99.90;;;;;;5074479;28;20662;-82
2022/11/28 06:55:53;;;;;;;6.30;3.97;;;3.40;99.90;;;;;;5110048;28;20181;-80
2022/11/28 06:58:19;;;;;;;5.13;3.83;;;3.50;99.90;;;;;;5077611;28;20198;-81
2022/11/28 07:00:44;;;;;;;6.93;4.10;;;3.40;99.90;;;;;;5077972;28;20189;-82
2022/11/28 07:03:11;;;;;;;6.80;4.20;;;3.30;99.90;;;;;;5077696;28;20182;-82
2022/11/28 07:05:37;;;;;;;7.17;4.83;;;3.40;99.90;;;;;;5078111;28;20646;-82
2022/11/28 07:08:03;;;;;;;7.70;3.83;;;3.40;99.90;;;;;;5077850;28;20296;-82
2022/11/28 07:10:28;;;;;;;8.20;4.90;;;3.40;99.90;;;;;;5077628;28;20202;-78
2022/11/28 07:12:56;;;;;;;8.30;5.33;;;3.40;99.90;;;;;;5094866;28;20230;-79
2022/11/28 07:15:22;;;;;;;5.10;3.47;;;4.10;99.90;;;;;;5077108;28;20168;-78
2022/11/28 07:17:48;;;;;;;5.90;3.47;;;4.80;99.90;;;;;;5095054;28;20200;-78
2022/11/28 07:20:13;;;;;;;7.23;3.67;;;5.30;99.90;;;;;;5077188;28;20169;-78
2022/11/28 07:22:39;;;;;;;6.00;3.87;;;5.70;99.90;;;;;;5094938;28;20259;-77
2022/11/28 07:25:05;;;;;;;6.33;4.00;;;6.00;99.90;;;;;;5094967;28;20193;-76
2022/11/28 07:27:31;;;;;;;7.13;3.73;;;6.30;99.90;;;;;;5077251;28;20201;-77
2022/11/28 07:29:56;;;;;;;4.50;3.40;;;6.50;99.90;;;;;;5095304;28;20164;-77
2022/11/28 07:32:22;;;;;;;5.90;3.90;;;6.40;99.90;;;;;;5094891;28;20170;-79
2022/11/28 07:34:47;;;;;;;6.53;4.40;;;5.80;99.90;;;;;;5077051;28;20261;-80
2022/11/28 07:37:14;;;;;;;6.00;3.40;;;5.30;99.90;;;;;;5094976;28;20297;-80
2022/11/28 07:39:41;;;;;;;8.10;4.43;;;4.90;99.90;;;;;;5095487;28;20163;-81
2022/11/28 07:42:06;;;;;;;5.23;3.97;;;4.50;99.90;;;;;;5095390;28;20162;-80
2022/11/28 07:44:32;;;;;;;6.13;4.13;;;4.20;99.90;;;;;;5077053;28;20176;-85
2022/11/28 07:46:58;;;;;;;4.83;3.50;;;4.10;99.90;;;;;;5095895;28;20185;-83
2022/11/28 07:49:23;;;;;;;5.37;3.57;;;4.00;99.90;;;;;;5095544;28;20332;-83
2022/11/28 07:51:49;;;;;;;4.80;3.70;;;3.90;99.90;;;;;;5077497;28;20170;-83
2022/11/28 07:54:14;;;;;;;7.03;4.53;;;3.80;99.90;;;;;;5094700;28;20195;-84
2022/11/28 07:56:40;;;;;;;5.77;4.13;;;3.80;99.90;;;;;;5076983;28;20688;-83
2022/11/28 07:59:06;;;;;;;6.60;4.60;;;3.80;99.90;;;;;;5076397;28;20280;-83
2022/11/28 08:01:34;;;;;;;7.40;4.67;;;3.70;99.90;;;;;;5076858;28;20165;-83
2022/11/28 08:04:01;;;;;;;6.40;4.13;;;3.80;99.90;;;;;;5076469;28;20176;-83
2022/11/28 08:06:29;;;;;;;5.80;3.90;;;3.90;99.90;;;;;;5094902;28;20282;-83
2022/11/28 08:08:56;;;;;;;6.97;4.43;;;3.90;99.90;;;;;;5076755;28;20665;-83
2022/11/28 08:11:23;;;;;;;5.40;4.10;;;3.90;99.90;;;;;;5076905;28;20222;-83
2022/11/28 08:13:49;;;;;;;5.77;4.20;;;3.90;99.90;;;;;;5094586;28;20263;-83
2022/11/28 08:16:17;;;;;;;6.73;4.60;;;3.90;99.90;;;;;;5094733;28;20199;-83
2022/11/28 08:18:43;;;;;;;6.03;4.53;;;3.80;99.90;;;;;;5094876;28;20200;-83
2022/11/28 08:21:11;;;;;;;7.33;5.07;;;3.80;99.90;;;;;;5076569;28;20172;-82
2022/11/28 08:23:38;;;;;;;5.83;4.47;;;3.80;99.90;;;;;;5076453;28;20176;-82
2022/11/28 08:26:08;;;;;;;6.00;4.33;;;3.90;99.90;;;;;;5094765;28;20174;-83
2022/11/28 08:28:33;;;;;;;5.20;3.97;;;3.90;99.90;;;;;;5089198;28;20199;-83
2022/11/28 08:31:06;;;;;;;5.57;4.00;;;4.00;99.90;;;;;;5114340;28;20172;-82
2022/11/28 08:33:32;;;;;;;4.93;3.90;;;4.00;99.90;;;;;;5095772;28;20203;-84
2022/11/28 08:35:57;;;;;;;5.07;3.80;;;4.00;99.90;;;;;;5096685;28;20168;-81
2022/11/28 08:38:23;;;;;;;6.57;3.87;;;4.00;99.90;;;;;;5096237;28;20210;-82
2022/11/28 08:40:48;;;;;;;5.83;4.40;;;4.00;99.90;;;;;;5097641;28;20171;-83
2022/11/28 08:43:14;;;;;;;6.27;4.20;;;4.00;99.90;;;;;;5114717;28;20176;-83
2022/11/28 08:45:39;;;;;;;6.67;4.03;;;3.90;99.90;;;;;;5112926;28;20186;-80
2022/11/28 08:48:05;;;;;;;7.70;5.00;;;4.00;99.90;;;;;;5084625;28;20290;-82
2022/11/28 08:50:31;;;;;;;7.20;4.80;;;3.90;99.90;;;;;;5093909;28;20699;-84
2022/11/28 08:52:56;;;;;;;7.40;5.20;;;4.00;99.90;;;;;;5103230;28;20235;-83
2022/11/28 08:55:22;;;;;;;6.40;4.57;;;4.00;99.90;;;;;;5095814;28;20167;-83
2022/11/28 08:57:47;;;;;;;7.30;4.57;;;4.10;99.90;;;;;;5095873;28;20192;-83
2022/11/28 09:00:13;;;;;;;6.47;4.57;;;4.10;99.90;;;;;;5114032;28;20183;-80
2022/11/28 09:02:39;;;;;;;8.23;5.20;;;4.10;99.90;;;;;;5095372;28;20704;-84
2022/11/28 09:05:05;;;;;;;6.83;4.90;;;4.20;99.90;;;;;;5113890;28;20208;-83
2022/11/28 09:07:31;;;;;;;7.10;4.80;;;4.20;99.90;;;;;;5095597;28;20247;-84
2022/11/28 09:09:56;;;;;;;7.87;5.50;;;4.30;99.90;;;;;;5105864;28;20180;-82
2022/11/28 09:12:22;;;;;;;7.53;5.33;;;4.30;99.90;;;;;;5101239;28;20210;-83
2022/11/28 09:14:47;;;;;;;7.03;5.20;;;4.30;99.90;;;;;;5074199;28;20188;-82
2022/11/28 09:17:14;;;;;;;7.03;5.17;;;4.40;99.90;;;;;;5084799;28;20257;-82
2022/11/28 09:19:40;;;;;;;5.83;4.63;;;4.40;99.90;;;;;;5090943;28;20223;-83
2022/11/28 09:22:06;;;;;;;8.80;5.80;;;4.50;99.90;;;;;;5104365;28;20255;-83
2022/11/28 09:24:31;;;;;;;8.40;6.03;;;4.50;99.90;;;;;;5113377;28;20172;-84
2022/11/28 09:26:57;;;;;;;8.03;5.60;;;4.50;99.90;;;;;;5113170;28;20172;-84
2022/11/28 09:29:22;;;;;;;8.70;5.93;;;4.60;99.90;;;;;;5113094;28;20179;-85
2022/11/28 09:31:48;;;;;;;8.20;5.93;;;4.60;99.90;;;;;;5094799;28;20179;-84
2022/11/28 09:34:14;;;;;;;8.40;6.10;;;4.60;99.90;;;;;;5112753;28;20208;-85
2022/11/28 09:36:40;;;;;;;7.97;5.33;;;4.70;99.90;;;;;;5094586;28;20179;-85
2022/11/28 09:39:06;;;;;;;8.33;5.93;;;4.70;99.90;;;;;;5112654;28;20238;-84
2022/11/28 09:41:43;;;;;;;10.37;6.20;;;4.70;99.90;;;;;;5112828;28;20172;-83
2022/11/28 09:44:35;;;;;;;9.67;6.43;;;4.70;99.90;;;;;;5094513;28;20251;-83
2022/11/28 09:47:07;;;;;;;10.40;6.80;;;4.80;99.90;;;;;;5113091;28;20259;-83
2022/11/28 09:49:36;;;;;;;9.77;6.83;;;4.80;99.90;;;;;;5113287;28;20240;-82
2022/11/28 09:52:10;;;;;;;11.67;7.30;;;4.80;99.90;;;;;;5094966;28;20645;-83
2022/11/28 09:54:43;;;;;;;9.37;6.57;;;4.90;99.90;;;;;;5095165;28;20193;-83
2022/11/28 09:57:20;;;;;;;11.13;7.30;;;4.90;99.90;;;;;;5095153;28;20275;-82
2022/11/28 09:59:45;;;;;;;12.17;8.60;;;4.80;99.90;;;;;;5094867;28;20168;-81
2022/11/28 10:02:25;;;;;;;13.20;9.07;;;4.80;99.90;;;;;;5113164;28;20259;-82
2022/11/28 10:05:09;;;;;;;13.00;7.97;;;4.80;99.90;;;;;;5112903;28;20180;-82
2022/11/28 10:07:52;;;;;;;13.90;8.37;;;4.90;99.90;;;;;;5097050;28;20610;-83
2022/11/28 10:10:54;;;;;;;14.43;8.37;;;4.90;99.90;;;;;;5114549;28;20168;-81
2022/11/28 10:13:23;;;;;;;15.00;11.30;;;5.00;99.90;;;;;;5112475;28;20573;-82
2022/11/28 10:16:05;;;;;;;13.00;9.30;;;5.00;99.90;;;;;;5094640;28;20172;-82
2022/11/28 10:18:47;;;;;;;13.77;10.40;;;5.00;99.90;;;;;;5094555;28;20188;-82
2022/11/28 10:21:28;;;;;;;10.90;7.50;;;5.10;99.90;;;;;;5114106;28;20179;-82
2022/11/28 10:24:00;;;;;;;11.17;6.80;;;5.10;99.90;;;;;;5098469;28;20173;-82
2022/11/28 10:26:30;;;;;;;11.43;7.40;;;5.20;99.90;;;;;;5112166;28;20541;-82
2022/11/28 10:28:58;;;;;;;10.13;7.27;;;5.20;99.90;;;;;;5106572;28;20554;-82
2022/11/28 10:31:33;;;;;;;11.03;7.70;;;5.20;99.90;;;;;;5094987;28;20258;-82
2022/11/28 10:34:20;;;;;;;11.50;7.53;;;5.20;99.90;;;;;;5076706;28;20256;-82
2022/11/28 10:36:54;;;;;;;10.40;6.97;;;5.20;99.90;;;;;;5095218;28;20172;-82
2022/11/28 10:39:19;;;;;;;9.97;7.47;;;5.30;99.90;;;;;;5095513;28;20665;-82
2022/11/28 10:42:11;;;;;;;12.93;8.97;;;5.40;99.90;;;;;;5095507;28;20168;-83
2022/11/28 10:45:01;;;;;;;11.93;7.37;;;5.40;99.90;;;;;;5095758;28;20189;-83
2022/11/28 10:47:59;;;;;;;11.27;7.17;;;5.30;99.90;;;;;;5077511;28;20288;-82
2022/11/28 10:50:32;;;;;;;11.10;7.00;;;5.40;99.90;;;;;;5055802;28;20571;-82
2022/11/28 10:53:36;;;;;;;11.23;7.90;;;5.40;99.90;;;;;;5077631;28;20202;-82
2022/11/28 10:56:24;;;;;;;11.30;7.50;;;5.40;99.90;;;;;;5063188;28;20186;-82
2022/11/28 10:58:49;;;;;;;10.30;7.23;;;5.40;99.90;;;;;;5077815;28;20190;-82
2022/11/28 11:01:15;;;;;;;10.93;7.80;;;5.40;99.90;;;;;;5096122;28;20240;-81
2022/11/28 11:03:41;;;;;;;10.53;7.10;;;5.40;99.90;;;;;;5077659;28;20267;-82
2022/11/28 11:06:07;;;;;;;10.73;6.93;;;5.50;99.90;;;;;;5077755;28;20179;-82
2022/11/28 11:08:38;;;;;;;10.53;7.30;;;5.60;99.90;;;;;;5077352;28;20259;-82
2022/11/28 11:11:04;;;;;;;10.43;7.33;;;5.60;99.90;;;;;;5095917;28;20177;-83
2022/11/28 11:13:32;;;;;;;10.97;7.43;;;5.60;99.90;;;;;;5095762;28;20202;-83
2022/11/28 11:16:02;;;;;;;12.37;8.47;;;5.70;99.90;;;;;;5077981;28;20180;-82
2022/11/28 11:18:31;;;;;;;10.73;7.60;;;5.70;99.90;;;;;;5077541;28;20194;-82
2022/11/28 11:21:17;;;;;;;11.17;7.00;;;5.70;99.90;;;;;;5078063;28;20181;-82
2022/11/28 11:23:44;;;;;;;11.23;8.27;;;5.70;99.90;;;;;;5076907;28;20183;-82
2022/11/28 11:26:32;;;;;;;11.97;8.30;;;5.80;99.90;;;;;;5095596;28;20182;-81
2022/11/28 11:28:58;;;;;;;10.00;7.67;;;5.80;99.90;;;;;;5076887;28;20594;-82
2022/11/28 11:31:29;;;;;;;11.00;7.20;;;5.90;99.90;;;;;;5095415;28;20676;-82
2022/11/28 11:34:11;;;;;;;12.03;7.43;;;5.90;99.90;;;;;;5076182;28;20216;-82
2022/11/28 11:36:37;;;;;;;11.33;7.17;;;5.90;99.90;;;;;;5076580;28;20171;-82
2022/11/28 11:39:05;;;;;;;11.87;8.03;;;5.90;99.90;;;;;;5105046;28;20220;-82
2022/11/28 11:41:32;;;;;;;10.03;6.83;;;5.90;99.90;;;;;;5091620;28;20174;-78
2022/11/28 11:44:19;;;;;;;11.10;7.73;;;6.10;99.90;;;;;;5095129;28;20187;-78
2022/11/28 11:46:55;;;;;;;9.60;7.37;;;6.90;99.90;;;;;;5093295;28;20178;-78
2022/11/28 11:49:28;;;;;;;10.83;7.07;;;7.30;99.90;;;;;;5101622;28;20196;-79
2022/11/28 11:51:58;;;;;;;10.73;7.27;;;7.20;99.90;;;;;;5115851;28;20174;-78
2022/11/28 11:54:24;;;;;;;8.93;6.97;;;6.90;99.90;;;;;;5096832;28;20200;-78
2022/11/28 11:56:50;;;;;;;8.53;6.17;;;6.70;99.90;;;;;;5115349;28;20167;-82
2022/11/28 11:59:40;;;;;;;10.93;6.83;;;6.60;99.90;;;;;;5097348;28;20220;-81
2022/11/28 12:02:29;;;;;;;8.90;6.57;;;6.50;99.90;;;;;;5091010;28;20231;-84
2022/11/28 12:05:14;;;;;;;11.10;6.53;;;6.40;99.90;;;;;;5094314;28;20187;-82
2022/11/28 12:08:31;;;;;;;10.03;6.60;;;6.30;99.90;;;;;;5092574;28;20195;-82
2022/11/28 12:11:24;;;;;;;9.90;6.53;;;6.20;99.90;;;;;;5058209;28;20673;-82
2022/11/28 12:13:50;;;;;;;11.23;6.90;;;6.20;99.90;;;;;;5088031;28;20187;-82
2022/11/28 12:16:31;;;;;;;10.33;6.80;;;6.30;99.90;;;;;;5114728;28;20235;-82
2022/11/28 12:19:15;;;;;;;9.43;6.37;;;6.20;99.90;;;;;;5096492;28;20283;-82
2022/11/28 12:21:56;;;;;;;9.43;6.77;;;6.30;99.90;;;;;;5096344;28;20180;-82
2022/11/28 12:25:08;;;;;;;8.30;6.23;;;6.30;99.90;;;;;;5096085;28;20182;-82
2022/11/28 12:28:10;;;;;;;10.97;6.90;;;6.30;99.90;;;;;;5114150;28;20249;-82
2022/11/28 12:30:52;;;;;;;8.67;6.27;;;6.30;99.90;;;;;;5096238;28;20173;-81
2022/11/28 12:33:58;;;;;;;9.53;6.50;;;6.40;99.90;;;;;;5095982;28;20206;-82
2022/11/28 12:36:42;;;;;;;10.73;6.77;;;6.40;99.90;;;;;;5114464;28;20196;-81
2022/11/28 12:39:16;;;;;;;11.77;6.67;;;6.40;99.90;;;;;;5087828;22;20232;-84
2022/11/28 12:41:44;;;;;;;8.77;6.47;;;6.30;99.90;;;;;;5073048;28;20172;-84
2022/11/28 12:44:28;;;;;;;11.43;6.97;;;6.30;99.90;;;;;;5073178;28;20182;-84
2022/11/28 12:47:03;;;;;;;12.30;7.13;;;6.30;99.90;;;;;;5073246;28;20187;-84
2022/11/28 12:49:53;;;;;;;11.17;6.60;;;6.40;99.90;;;;;;5055154;28;20571;-84
2022/11/28 12:53:03;;;;;;;11.33;6.90;;;6.40;99.90;;;;;;5055566;28;20175;-84
2022/11/28 12:55:47;;;;;;;12.30;8.17;;;6.40;99.90;;;;;;4984967;28;20293;-84
2022/11/28 12:58:42;;;;;;;22.17;15.40;;;6.40;99.90;;;;;;5065458;28;20670;-84
2022/11/28 13:01:30;;;;;;;15.43;11.03;;;6.30;99.90;;;;;;5074582;28;20200;-84
2022/11/28 13:04:01;;;;;;;13.93;10.17;;;6.30;99.90;;;;;;5072392;28;20653;-85
2022/11/28 13:06:45;;;;;;;17.50;11.77;;;6.30;99.90;;;;;;5066501;28;20198;-84
2022/11/28 13:09:49;;;;;;;13.10;9.87;;;6.40;99.90;;;;;;5093047;28;20204;-84
2022/11/28 13:12:28;;;;;;;12.83;8.50;;;6.40;99.90;;;;;;5091124;28;20179;-84
2022/11/28 13:15:02;;;;;;;10.13;6.97;;;6.30;99.90;;;;;;5074607;28;20191;-85
2022/11/28 13:17:44;;;;;;;10.40;6.77;;;6.30;99.90;;;;;;5074709;28;20178;-84
2022/11/28 13:20:23;;;;;;;10.27;6.60;;;6.30;99.90;;;;;;5074510;28;20171;-84
2022/11/28 13:23:23;;;;;;;9.77;6.73;;;6.30;99.90;;;;;;5092665;28;20172;-84
2022/11/28 13:26:00;;;;;;;10.93;7.20;;;6.30;99.90;;;;;;5092670;28;20189;-84